createdAt,value
2022-08-12T00:02:24.245Z,99605.50
2022-08-12T00:06:04.361Z,99597.88
2022-08-12T00:09:26.569Z,99598.38
2022-08-12T00:12:47.134Z,99599.59
2022-08-12T00:16:08.417Z,99597.88
2022-08-12T00:19:28.652Z,99602.06
2022-08-12T00:22:58.843Z,99599.81
2022-08-12T00:26:24.437Z,99597.88
2022-08-12T00:29:48.046Z,99592.66
2022-08-12T00:33:08.739Z,99596.09
2022-08-12T00:36:34.729Z,99589.91
2022-08-12T00:39:58.028Z,99591.03
2022-08-12T00:42:59.895Z,99588.13
2022-08-12T00:46:20.555Z,99595.78
2022-08-12T00:49:24.073Z,99583.03
2022-08-12T00:52:25.986Z,99585.91
2022-08-12T00:55:27.879Z,99582.03
2022-08-12T00:58:30.622Z,99584.91
2022-08-12T01:02:00.963Z,99579.66
2022-08-12T01:05:17.242Z,99590.34
2022-08-12T01:08:51.106Z,99585.56
2022-08-12T01:11:54.644Z,99583.66
2022-08-12T01:14:57.498Z,99577.75
2022-08-12T01:17:59.305Z,99567.25
2022-08-12T01:21:27.652Z,99572.88
2022-08-12T01:24:31.002Z,99572.38
2022-08-12T01:27:35.117Z,99568.19
2022-08-12T01:30:37.151Z,99570.91
2022-08-12T01:34:01.875Z,99572.72
2022-08-12T01:37:04.989Z,99569.72
2022-08-12T01:40:35.492Z,99564.78
2022-08-12T01:43:32.114Z,99567.34
2022-08-12T01:46:42.606Z,99564.47
2022-08-12T01:50:09.190Z,99565.91
2022-08-12T01:53:18.858Z,99568.34
2022-08-12T01:56:23.841Z,99562.41
2022-08-12T01:59:49.705Z,99565.47
2022-08-12T02:03:12.670Z,99557.63
2022-08-12T02:06:41.342Z,99567.69
2022-08-12T02:10:51.058Z,99566.91
2022-08-12T02:13:58.502Z,99555.16
2022-08-12T02:17:54.577Z,99567.69
2022-08-12T02:20:58.638Z,99564.22
2022-08-12T02:24:00.875Z,99564.38
2022-08-12T02:27:02.947Z,99557.06
2022-08-12T02:30:06.300Z,99558.50
2022-08-12T02:33:08.380Z,99569.16
2022-08-12T02:36:10.120Z,99553.56
2022-08-12T02:39:16.284Z,99561.19
2022-08-12T02:42:20.862Z,99558.16
2022-08-12T02:45:27.818Z,99560.34
2022-08-12T02:48:35.105Z,99573.50
2022-08-12T02:51:42.420Z,99560.16
2022-08-12T02:54:46.390Z,99561.72
2022-08-12T02:57:49.158Z,99558.38
2022-08-12T03:00:50.913Z,99558.69
2022-08-12T03:03:55.799Z,99560.41
2022-08-12T03:07:23.922Z,99561.19
2022-08-12T03:10:36.817Z,99551.16
2022-08-12T03:13:42.168Z,99549.88
2022-08-12T03:16:50.269Z,99554.28
2022-08-12T03:20:10.901Z,99558.25
2022-08-12T03:23:19.404Z,99552.78
2022-08-12T03:26:35.413Z,99558.44
2022-08-12T03:29:49.858Z,99548.44
2022-08-12T03:32:55.126Z,99554.44
2022-08-12T03:35:58.370Z,99551.34
2022-08-12T03:39:16.795Z,99542.66
2022-08-12T03:42:32.467Z,99539.69
2022-08-12T03:45:53.350Z,99544.84
2022-08-12T03:49:17.767Z,99546.06
2022-08-12T03:52:38.602Z,99544.53
2022-08-12T03:55:59.620Z,99550.06
2022-08-12T03:59:21.439Z,99548.91
2022-08-12T04:02:24.316Z,99547.94
2022-08-12T04:05:54.449Z,99548.06
2022-08-12T04:08:52.319Z,99548.66
2022-08-12T04:12:12.551Z,99544.19
2022-08-12T04:15:18.571Z,99541.81
2022-08-12T04:18:20.708Z,99543.09
2022-08-12T04:21:22.386Z,99539.31
2022-08-12T04:24:26.262Z,99526.13
2022-08-12T04:27:30.269Z,99530.41
2022-08-12T04:30:33.760Z,99525.34
2022-08-12T04:33:36.639Z,99531.84
2022-08-12T04:36:40.545Z,99526.28
2022-08-12T04:39:44.477Z,99531.53
2022-08-12T04:42:46.479Z,99528.16
2022-08-12T04:45:49.853Z,99535.56
2022-08-12T04:48:52.716Z,99542.44
2022-08-12T04:51:59.388Z,99535.75
2022-08-12T04:55:01.700Z,99542.25
2022-08-12T04:58:03.446Z,99533.56
2022-08-12T05:01:05.399Z,99534.34
2022-08-12T05:04:08.277Z,99533.28
2022-08-12T05:07:09.982Z,99535.44
2022-08-12T05:10:11.786Z,99542.91
2022-08-12T05:13:16.580Z,99554.16
2022-08-12T05:16:18.259Z,99545.00
2022-08-12T05:19:30.387Z,99543.75
2022-08-12T05:22:37.103Z,99553.75
2022-08-12T05:25:39.166Z,99553.75
2022-08-12T05:28:41.301Z,99556.13
2022-08-12T05:31:48.192Z,99559.59
2022-08-12T05:34:50.621Z,99559.78
2022-08-12T05:38:15.065Z,99563.44
2022-08-12T05:41:20.481Z,99559.56
2022-08-12T05:44:22.367Z,99556.38
2022-08-12T05:47:24.142Z,99557.34
2022-08-12T05:50:46.163Z,99553.59
2022-08-12T05:53:48.341Z,99565.22
2022-08-12T05:56:50.066Z,99566.13
2022-08-12T05:59:52.027Z,99568.97
2022-08-12T06:02:57.138Z,99566.91
2022-08-12T06:05:58.951Z,99583.28
2022-08-12T06:09:01.405Z,99574.06
2022-08-12T06:12:05.605Z,99574.22
2022-08-12T06:15:08.353Z,99571.53
2022-08-12T06:18:16.105Z,99573.00
2022-08-12T06:21:21.626Z,99568.50
2022-08-12T06:24:26.074Z,99574.72
2022-08-12T06:27:27.858Z,99576.41
2022-08-12T06:30:36.901Z,99574.69
2022-08-12T06:33:55.604Z,99574.41
2022-08-12T06:36:59.596Z,99578.09
2022-08-12T06:40:03.859Z,99583.81
2022-08-12T06:43:06.283Z,99576.06
2022-08-12T06:46:08.296Z,99577.13
2022-08-12T06:49:13.347Z,99569.38
2022-08-12T06:52:15.102Z,99575.28
2022-08-12T06:55:20.682Z,99575.50
2022-08-12T06:58:25.160Z,99575.81
2022-08-12T07:01:27.651Z,99583.94
2022-08-12T07:04:38.518Z,99581.06
2022-08-12T07:07:41.509Z,99574.22
2022-08-12T07:10:45.323Z,99576.13
2022-08-12T07:14:12.675Z,99578.97
2022-08-12T07:17:14.597Z,99569.91
2022-08-12T07:20:42.552Z,99567.03
2022-08-12T07:23:39.974Z,99566.66
2022-08-12T07:26:43.697Z,99571.44
2022-08-12T07:30:00.086Z,99570.59
2022-08-12T07:33:09.027Z,99566.38
2022-08-12T07:36:14.009Z,99570.44
2022-08-12T07:39:15.916Z,99583.09
2022-08-12T07:42:18.924Z,99578.09
2022-08-12T07:45:21.078Z,99575.72
2022-08-12T07:48:23.446Z,99581.44
2022-08-12T07:51:26.227Z,99578.72
2022-08-12T07:54:27.945Z,99585.91
2022-08-12T07:57:29.812Z,99583.16
2022-08-12T08:00:34.378Z,99581.09
2022-08-12T08:03:59.361Z,99583.34
2022-08-12T08:07:01.859Z,99585.38
2022-08-12T08:10:10.883Z,99589.63
2022-08-12T08:13:13.489Z,99576.84
2022-08-12T08:16:15.300Z,99579.34
2022-08-12T08:19:20.766Z,99579.72
2022-08-12T08:22:25.017Z,99570.56
2022-08-12T08:25:43.677Z,99572.63
2022-08-12T08:28:45.451Z,99569.53
2022-08-12T08:31:50.734Z,99573.09
2022-08-12T08:34:54.291Z,99574.13
2022-08-12T08:38:07.205Z,99573.88
2022-08-12T08:42:17.698Z,99575.50
2022-08-12T08:44:58.476Z,99564.66
2022-08-12T08:48:00.772Z,99570.78
2022-08-12T08:51:05.148Z,99570.47
2022-08-12T08:54:08.756Z,99577.50
2022-08-12T08:57:10.880Z,99569.25
2022-08-12T09:00:15.537Z,99567.66
2022-08-12T09:05:08.691Z,99568.09
2022-08-12T09:06:53.385Z,99551.41
2022-08-12T09:10:02.015Z,99553.72
2022-08-12T09:13:29.166Z,99555.50
2022-08-12T09:16:46.054Z,99550.94
2022-08-12T09:19:57.510Z,99555.59
2022-08-12T09:24:01.094Z,99545.22
2022-08-12T09:26:38.128Z,99552.41
2022-08-12T09:30:10.867Z,99554.50
2022-08-12T09:33:18.456Z,99553.47
2022-08-12T09:36:31.393Z,99548.56
2022-08-12T09:40:03.217Z,99550.41
2022-08-12T09:43:24.999Z,99546.88
2022-08-12T09:46:27.248Z,99538.69
2022-08-12T09:49:28.959Z,99534.50
2022-08-12T09:52:32.029Z,99540.72
2022-08-12T09:56:05.993Z,99546.66
2022-08-12T09:59:01.433Z,99535.09
2022-08-12T10:02:44.405Z,99534.66
2022-08-12T10:06:27.839Z,99541.06
2022-08-12T10:08:52.542Z,99537.69
2022-08-12T10:12:13.728Z,99536.59
2022-08-12T10:16:01.408Z,99527.25
2022-08-12T10:18:51.583Z,99524.47
2022-08-12T10:21:56.858Z,99513.72
2022-08-12T10:25:18.216Z,99517.91
2022-08-12T10:28:39.264Z,99512.34
2022-08-12T10:31:47.003Z,99514.44
2022-08-12T10:34:53.695Z,99516.38
2022-08-12T10:38:38.768Z,99512.84
2022-08-12T10:41:58.290Z,99513.28
2022-08-12T10:45:04.442Z,99504.47
2022-08-12T10:48:21.769Z,99518.81
2022-08-12T10:52:03.690Z,99502.84
2022-08-12T10:54:55.555Z,99505.66
2022-08-12T10:58:15.243Z,99503.94
2022-08-12T11:01:49.420Z,99494.28
2022-08-12T11:04:49.693Z,99497.38
2022-08-12T11:08:33.694Z,99493.22
2022-08-12T11:12:07.590Z,99498.63
2022-08-12T11:14:49.558Z,99489.44
2022-08-12T11:17:55.662Z,99484.13
2022-08-12T11:20:59.397Z,99476.22
2022-08-12T11:24:01.921Z,99475.09
2022-08-12T11:27:07.967Z,99467.19
2022-08-12T11:30:31.029Z,99471.69
2022-08-12T11:34:05.234Z,99464.91
2022-08-12T11:36:57.385Z,99466.66
2022-08-12T11:40:00.250Z,99461.31
2022-08-12T11:43:20.097Z,99462.16
2022-08-12T11:46:22.257Z,99455.53
2022-08-12T11:49:30.992Z,99453.56
2022-08-12T11:52:53.950Z,99460.59
2022-08-12T11:55:55.849Z,99448.81
2022-08-12T12:02:20.794Z,99444.09
2022-08-12T12:05:23.058Z,99437.06
2022-08-12T12:08:43.374Z,99433.09
2022-08-12T12:11:49.705Z,99435.81
2022-08-12T12:14:54.686Z,99435.03
2022-08-12T12:17:57.706Z,99432.63
2022-08-12T12:21:02.160Z,99426.09
2022-08-12T12:24:06.302Z,99428.16
2022-08-12T12:27:08.940Z,99421.47
2022-08-12T12:30:19.517Z,99426.28
2022-08-12T12:33:57.552Z,99428.34
2022-08-12T12:36:54.742Z,99416.00
2022-08-12T12:39:59.989Z,99418.59
2022-08-12T12:43:05.112Z,99415.91
2022-08-12T12:46:08.807Z,99427.28
2022-08-12T12:49:11.233Z,99417.91
2022-08-12T12:52:21.160Z,99420.84
2022-08-12T12:55:23.848Z,99415.03
2022-08-12T12:58:34.307Z,99410.38
2022-08-12T13:01:41.837Z,99410.59
2022-08-12T13:04:43.894Z,99408.84
2022-08-12T13:07:49.535Z,99406.88
2022-08-12T13:11:04.063Z,99408.75
2022-08-12T13:14:11.922Z,99401.41
2022-08-12T13:17:17.540Z,99398.56
2022-08-12T13:20:38.145Z,99397.09
2022-08-12T13:23:49.190Z,99396.81
2022-08-12T13:26:50.994Z,99399.50
2022-08-12T13:29:56.239Z,99395.47
2022-08-12T13:32:59.914Z,99395.44
2022-08-12T13:36:06.960Z,99393.41
2022-08-12T13:39:09.889Z,99393.59
2022-08-12T13:42:14.832Z,99390.41
2022-08-12T13:45:16.862Z,99395.06
2022-08-12T13:48:19.855Z,99403.28
2022-08-12T13:51:24.556Z,99396.84
2022-08-12T13:54:26.453Z,99393.84
2022-08-12T13:57:44.462Z,99395.34
2022-08-12T14:00:51.626Z,99389.78
2022-08-12T14:03:54.683Z,99391.75
2022-08-12T14:06:56.381Z,99397.03
2022-08-12T14:10:16.793Z,99393.69
2022-08-12T14:14:03.755Z,99389.88
2022-08-12T14:16:49.390Z,99383.09
2022-08-12T14:20:12.647Z,99386.91
2022-08-12T14:24:00.991Z,99382.59
2022-08-12T14:26:39.139Z,99369.25
2022-08-12T14:30:04.731Z,99371.66
2022-08-12T14:33:09.094Z,99371.16
2022-08-12T14:36:13.080Z,99377.00
2022-08-12T14:39:17.501Z,99371.84
2022-08-12T14:42:20.056Z,99371.63
2022-08-12T14:45:23.061Z,99367.59
2022-08-12T14:48:25.339Z,99365.50
2022-08-12T14:52:38.977Z,99365.31
2022-08-12T14:58:13.920Z,99370.34
2022-08-12T15:01:34.350Z,99355.16
2022-08-12T15:04:36.072Z,99365.34
2022-08-12T15:07:50.304Z,99356.84
2022-08-12T15:10:54.197Z,99364.09
2022-08-12T15:13:55.984Z,99358.03
2022-08-12T15:17:00.529Z,99365.25
2022-08-12T15:20:32.335Z,99351.44
2022-08-12T15:23:29.227Z,99356.78
2022-08-12T15:26:40.920Z,99354.00
2022-08-12T15:29:42.726Z,99348.09
2022-08-12T15:32:48.671Z,99346.78
2022-08-12T15:35:53.718Z,99348.53
2022-08-12T15:38:55.985Z,99354.03
2022-08-12T15:42:01.940Z,99356.47
2022-08-12T15:45:08.722Z,99347.19
2022-08-12T15:48:16.635Z,99346.44
2022-08-12T15:51:59.093Z,99348.25
2022-08-12T15:55:11.360Z,99335.88
2022-08-12T15:58:16.746Z,99338.78
2022-08-12T16:01:19.661Z,99343.50
2022-08-12T16:04:21.607Z,99333.75
2022-08-12T16:07:29.641Z,99323.63
2022-08-12T16:10:33.065Z,99332.59
2022-08-12T16:13:36.366Z,99323.00
2022-08-12T16:16:38.181Z,99328.19
2022-08-12T16:20:04.002Z,99322.88
2022-08-12T16:23:14.920Z,99330.66
2022-08-12T16:26:34.886Z,99335.84
2022-08-12T16:29:53.094Z,99324.75
2022-08-12T16:33:08.917Z,99322.69
2022-08-12T16:36:18.948Z,99321.97
2022-08-12T16:39:20.826Z,99316.91
2022-08-12T16:42:28.050Z,99318.66
2022-08-12T16:45:32.130Z,99315.03
2022-08-12T16:48:55.081Z,99315.75
2022-08-12T16:51:58.122Z,99316.78
2022-08-12T16:55:00.142Z,99313.56
2022-08-12T16:58:25.605Z,99320.88
2022-08-12T17:01:36.813Z,99313.88
2022-08-12T17:04:39.039Z,99319.56
2022-08-12T17:07:47.158Z,99316.50
2022-08-12T17:10:54.342Z,99316.44
2022-08-12T17:13:56.084Z,99315.97
2022-08-12T17:16:58.483Z,99312.13
2022-08-12T17:20:34.947Z,99312.19
2022-08-12T17:23:47.856Z,99309.84
2022-08-12T17:26:53.146Z,99310.31
2022-08-12T17:30:01.893Z,99307.81
2022-08-12T17:33:07.633Z,99308.81
2022-08-12T17:36:10.633Z,99306.59
2022-08-12T17:39:12.705Z,99309.72
2022-08-12T17:42:34.623Z,99311.63
2022-08-12T17:45:42.370Z,99309.66
2022-08-12T17:48:54.588Z,99317.59
2022-08-12T17:52:02.772Z,99312.53
2022-08-12T17:55:06.983Z,99317.81
2022-08-12T17:58:37.156Z,99316.66
2022-08-12T18:01:45.092Z,99311.47
2022-08-12T18:05:04.483Z,99315.97
2022-08-12T18:08:11.092Z,99310.66
2022-08-12T18:12:04.527Z,99306.25
2022-08-12T18:15:00.665Z,99308.38
2022-08-12T18:18:03.381Z,99312.78
2022-08-12T18:21:09.233Z,99311.91
2022-08-12T18:24:21.743Z,99311.75
2022-08-12T18:27:43.720Z,99305.53
2022-08-12T18:30:52.810Z,99311.44
2022-08-12T18:34:02.870Z,99311.41
2022-08-12T18:37:16.397Z,99311.19
2022-08-12T18:40:46.026Z,99310.00
2022-08-12T18:43:58.706Z,99310.41
2022-08-12T18:47:03.479Z,99311.94
2022-08-12T18:50:10.815Z,99316.41
2022-08-12T18:54:05.418Z,99315.09
2022-08-12T18:56:38.594Z,99319.06
2022-08-12T19:00:00.119Z,99322.00
2022-08-12T19:03:09.183Z,99318.78
2022-08-12T19:06:35.788Z,99321.03
2022-08-12T19:09:58.317Z,99321.69
2022-08-12T19:13:24.086Z,99315.91
2022-08-12T19:16:27.082Z,99318.69
2022-08-12T19:19:37.347Z,99319.75
2022-08-12T19:22:57.843Z,99321.22
2022-08-12T19:26:05.263Z,99314.38
2022-08-12T19:29:14.015Z,99318.00
2022-08-12T19:32:23.221Z,99321.28
2022-08-12T19:36:08.150Z,99320.47
2022-08-12T19:38:56.647Z,99314.41
2022-08-12T19:42:01.144Z,99315.13
2022-08-12T19:45:04.871Z,99319.50
2022-08-12T19:48:17.831Z,99323.66
2022-08-12T19:51:52.244Z,99326.00
2022-08-12T19:54:57.514Z,99326.66
2022-08-12T19:58:01.538Z,99332.50
2022-08-12T20:01:11.044Z,99337.16
2022-08-12T20:04:13.641Z,99331.75
2022-08-12T20:07:23.044Z,99338.59
2022-08-12T20:10:35.405Z,99343.47
2022-08-12T20:13:38.547Z,99348.75
2022-08-12T20:16:53.039Z,99349.75
2022-08-12T20:20:19.243Z,99353.81
2022-08-12T20:23:24.030Z,99359.16
2022-08-12T20:26:46.038Z,99361.16
2022-08-12T20:29:47.972Z,99354.94
2022-08-12T20:33:00.591Z,99353.25
2022-08-12T20:36:12.979Z,99349.97
2022-08-12T20:39:51.117Z,99346.91
2022-08-12T20:42:48.002Z,99349.25
2022-08-12T20:45:57.363Z,99357.34
2022-08-12T20:49:17.069Z,99359.94
2022-08-12T20:52:19.490Z,99360.78
2022-08-12T20:55:21.309Z,99357.28
2022-08-12T20:58:43.110Z,99359.03
2022-08-12T21:01:47.734Z,99360.16
2022-08-12T21:05:16.357Z,99357.28
2022-08-12T21:08:22.106Z,99361.44
2022-08-12T21:11:24.434Z,99359.88
2022-08-12T21:14:40.008Z,99355.66
2022-08-12T21:18:08.886Z,99349.78
2022-08-12T21:21:46.824Z,99353.84
2022-08-12T21:24:46.994Z,99348.28
2022-08-12T21:27:58.569Z,99352.91
2022-08-12T21:32:34.951Z,99356.94
2022-08-12T21:34:29.091Z,99354.56
2022-08-12T21:37:31.891Z,99351.06
2022-08-12T21:40:52.704Z,99347.75
2022-08-12T21:43:55.122Z,99349.09
2022-08-12T21:47:21.236Z,99348.97
2022-08-12T21:50:28.989Z,99347.25
2022-08-12T21:53:31.607Z,99345.19
2022-08-12T21:56:55.603Z,99349.69
2022-08-12T21:59:57.376Z,99351.47
2022-08-12T22:03:17.468Z,99351.81
2022-08-12T22:06:43.063Z,99354.38
2022-08-12T22:09:45.682Z,99351.66
2022-08-12T22:12:47.666Z,99354.03
2022-08-12T22:15:52.609Z,99351.88
2022-08-12T22:18:57.019Z,99348.56
2022-08-12T22:22:04.093Z,99344.91
2022-08-12T22:25:09.480Z,99345.13
2022-08-12T22:28:38.727Z,99346.19
2022-08-12T22:31:41.133Z,99351.31
2022-08-12T22:34:45.881Z,99342.03
2022-08-12T22:37:47.570Z,99343.13
2022-08-12T22:40:51.366Z,99350.00
2022-08-12T22:44:11.749Z,99349.88
2022-08-12T22:47:54.301Z,99351.94
2022-08-12T22:50:59.379Z,99353.97
2022-08-12T22:54:01.198Z,99347.63
2022-08-12T22:57:03.555Z,99357.81
2022-08-12T23:00:10.128Z,99347.84
2022-08-12T23:03:48.149Z,99342.28
2022-08-12T23:06:54.739Z,99345.22
2022-08-12T23:09:56.449Z,99351.44
2022-08-12T23:13:16.583Z,99346.88
2022-08-12T23:16:29.472Z,99344.00
2022-08-12T23:19:38.056Z,99345.91
2022-08-12T23:22:40.413Z,99348.00
2022-08-12T23:25:55.233Z,99342.09
2022-08-12T23:29:29.887Z,99339.59
2022-08-12T23:32:37.427Z,99337.84
2022-08-12T23:35:53.806Z,99343.25
2022-08-12T23:39:03.763Z,99340.69
2022-08-12T23:42:18.072Z,99340.56
2022-08-12T23:45:31.092Z,99347.22
2022-08-12T23:48:34.152Z,99343.41
2022-08-12T23:51:36.584Z,99342.59
2022-08-12T23:54:44.915Z,99342.94
2022-08-12T23:58:18.353Z,99336.78
